createdAt,value
2023-04-29T00:03:29.113Z,28.17
2023-04-29T00:08:31.047Z,25.92
2023-04-29T00:13:32.766Z,26.67
2023-04-29T00:18:34.505Z,25.70
2023-04-29T00:23:36.234Z,27.83
2023-04-29T00:28:37.967Z,28.65
2023-04-29T00:33:40.842Z,28.80
2023-04-29T00:38:42.640Z,27.08
2023-04-29T00:43:44.407Z,26.50
2023-04-29T00:48:46.086Z,31.25
2023-04-29T00:53:49.650Z,30.40
2023-04-29T00:58:52.693Z,29.50
2023-04-29T01:03:55.129Z,29.73
2023-04-29T01:09:04.621Z,28.58
2023-04-29T01:14:07.687Z,32.25
2023-04-29T01:19:37.294Z,30.23
2023-04-29T01:24:39.751Z,30.15
2023-04-29T01:30:27.243Z,30.27
2023-04-29T01:35:54.961Z,31.42
2023-04-29T01:41:13.531Z,32.10
2023-04-29T01:46:18.605Z,32.65
2023-04-29T01:51:21.862Z,33.30
2023-04-29T01:56:23.592Z,31.27
2023-04-29T02:01:36.880Z,31.00
2023-04-29T02:06:39.256Z,34.58
2023-04-29T02:11:41.208Z,36.17
2023-04-29T02:16:46.479Z,25.33
2023-04-29T02:21:49.339Z,11.77
2023-04-29T02:26:53.614Z,11.57
2023-04-29T02:31:55.652Z,10.45
2023-04-29T02:36:57.432Z,8.90
2023-04-29T02:41:59.188Z,8.32
2023-04-29T02:47:01.172Z,7.35
2023-04-29T02:52:03.217Z,7.93
2023-04-29T02:57:05.106Z,6.68
2023-04-29T03:02:07.442Z,9.65
2023-04-29T03:07:09.234Z,18.33
2023-04-29T03:12:12.045Z,15.90
2023-04-29T03:17:14.307Z,14.25
2023-04-29T03:22:17.586Z,12.52
2023-04-29T03:27:19.762Z,8.85
2023-04-29T03:32:21.617Z,4.80
2023-04-29T03:37:23.466Z,4.65
2023-04-29T03:42:32.076Z,3.90
2023-04-29T03:47:33.926Z,3.95
2023-04-29T03:52:38.754Z,4.28
2023-04-29T03:57:45.921Z,3.60
2023-04-29T04:02:49.427Z,3.97
2023-04-29T04:07:52.922Z,3.85
2023-04-29T04:13:21.078Z,4.13
2023-04-29T04:18:23.356Z,4.05
2023-04-29T04:23:25.321Z,4.55
2023-04-29T04:28:29.829Z,4.70
2023-04-29T04:33:36.554Z,4.63
2023-04-29T04:38:38.652Z,5.25
2023-04-29T04:43:45.530Z,7.13
2023-04-29T04:49:03.713Z,13.32
2023-04-29T04:54:09.609Z,14.27
2023-04-29T04:59:13.198Z,18.60
2023-04-29T05:04:15.798Z,21.85
2023-04-29T05:09:17.977Z,18.98
2023-04-29T05:14:20.883Z,19.40
2023-04-29T05:19:22.862Z,24.08
2023-04-29T05:24:24.853Z,21.38
2023-04-29T05:29:28.036Z,19.55
2023-04-29T05:34:34.014Z,20.40
2023-04-29T05:39:35.842Z,21.30
2023-04-29T05:44:44.951Z,18.15
2023-04-29T05:49:46.827Z,16.50
2023-04-29T05:54:48.996Z,16.50
2023-04-29T05:59:50.923Z,17.35
2023-04-29T06:04:53.291Z,16.45
2023-04-29T06:10:21.211Z,15.40
2023-04-29T06:15:24.418Z,15.93
2023-04-29T06:20:27.397Z,15.57
2023-04-29T06:25:29.142Z,15.48
2023-04-29T06:30:34.157Z,14.60
2023-04-29T06:35:41.017Z,16.17
2023-04-29T06:40:42.813Z,14.40
2023-04-29T06:46:03.115Z,14.80
2023-04-29T06:51:13.724Z,14.60
2023-04-29T06:56:16.953Z,15.73
2023-04-29T07:01:19.032Z,14.82
2023-04-29T07:06:20.788Z,15.85
2023-04-29T07:11:24.749Z,15.77
2023-04-29T07:16:28.188Z,16.48
2023-04-29T07:21:30.762Z,16.15
2023-04-29T07:26:32.631Z,16.38
2023-04-29T07:31:37.411Z,18.85
2023-04-29T07:36:39.957Z,17.08
2023-04-29T07:41:41.823Z,17.10
2023-04-29T07:46:43.556Z,13.30
2023-04-29T07:51:45.375Z,10.73
2023-04-29T07:56:47.095Z,10.27
2023-04-29T08:01:48.856Z,10.25
2023-04-29T08:06:50.842Z,9.43
2023-04-29T08:11:52.528Z,9.60
2023-04-29T08:16:55.415Z,10.75
2023-04-29T08:21:57.140Z,11.45
2023-04-29T08:26:59.284Z,10.48
2023-04-29T08:32:01.534Z,8.52
2023-04-29T08:37:03.325Z,10.40
2023-04-29T08:42:11.873Z,10.23
2023-04-29T08:47:14.906Z,11.73
2023-04-29T08:52:16.735Z,14.57
2023-04-29T08:57:18.541Z,12.40
2023-04-29T09:02:21.624Z,12.98
2023-04-29T09:07:24.553Z,12.52
2023-04-29T09:12:26.656Z,12.70
2023-04-29T09:17:48.360Z,14.52
2023-04-29T09:22:52.056Z,12.95
2023-04-29T09:27:55.660Z,18.20
2023-04-29T09:33:10.012Z,11.63
2023-04-29T09:38:15.842Z,11.98
2023-04-29T09:43:19.053Z,9.80
2023-04-29T09:48:20.739Z,10.82
2023-04-29T09:53:30.373Z,10.30
2023-04-29T09:58:38.132Z,11.07
2023-04-29T10:03:42.835Z,9.90
2023-04-29T10:08:46.468Z,11.20
2023-04-29T10:13:52.214Z,10.15
2023-04-29T10:18:56.350Z,11.10
2023-04-29T10:23:59.855Z,11.20
2023-04-29T10:29:04.282Z,10.93
2023-04-29T10:34:05.926Z,12.00
2023-04-29T10:39:13.749Z,12.25
2023-04-29T10:44:15.654Z,12.45
2023-04-29T10:49:17.664Z,13.70
2023-04-29T10:54:25.731Z,13.27
2023-04-29T10:59:33.360Z,13.85
2023-04-29T11:04:35.156Z,13.05
2023-04-29T11:09:38.738Z,10.07
2023-04-29T11:14:40.430Z,9.60
2023-04-29T11:19:53.353Z,10.23
2023-04-29T11:25:00.844Z,8.05
2023-04-29T11:30:05.366Z,7.13
2023-04-29T11:35:15.295Z,6.18
2023-04-29T11:40:17.442Z,5.80
2023-04-29T11:45:19.577Z,6.80
2023-04-29T11:50:21.309Z,7.47
2023-04-29T11:55:23.075Z,5.88
2023-04-29T12:00:27.878Z,6.03
2023-04-29T12:05:30.207Z,5.53
2023-04-29T12:10:32.681Z,5.82
2023-04-29T12:15:35.482Z,5.38
2023-04-29T12:20:39.344Z,6.80
2023-04-29T12:25:44.455Z,8.38
2023-04-29T12:30:50.723Z,9.05
2023-04-29T12:35:55.310Z,10.20
2023-04-29T12:41:00.989Z,9.10
2023-04-29T12:46:04.163Z,7.97
2023-04-29T12:51:06.013Z,8.13
2023-04-29T12:56:08.437Z,8.70
2023-04-29T13:06:11.874Z,10.38
2023-04-29T13:11:13.707Z,10.65
2023-04-29T13:16:15.875Z,11.38
2023-04-29T13:21:17.662Z,13.95
2023-04-29T13:26:19.386Z,14.07
2023-04-29T13:31:21.353Z,15.35
2023-04-29T13:36:23.142Z,16.25
2023-04-29T13:41:26.723Z,17.02
2023-04-29T13:46:31.258Z,18.15
2023-04-29T13:52:20.336Z,20.80
2023-04-29T13:57:47.485Z,22.17
2023-04-29T14:02:25.136Z,21.55
2023-04-29T14:07:27.904Z,20.98
2023-04-29T14:12:29.630Z,19.80
2023-04-29T14:17:31.472Z,19.27
2023-04-29T14:22:33.321Z,17.92
2023-04-29T14:27:36.826Z,19.02
2023-04-29T14:32:38.622Z,19.70
2023-04-29T14:37:40.470Z,18.88
2023-04-29T14:42:42.303Z,18.83
2023-04-29T14:47:44.385Z,18.60
2023-04-29T14:52:46.402Z,17.90
2023-04-29T14:57:48.129Z,17.98
2023-04-29T15:02:50.869Z,17.90
2023-04-29T15:07:52.808Z,17.48
2023-04-29T15:12:55.111Z,17.75
2023-04-29T15:17:56.981Z,18.52
2023-04-29T15:22:58.822Z,19.63
2023-04-29T15:28:01.668Z,17.23
2023-04-29T15:33:04.653Z,17.38
2023-04-29T15:38:07.126Z,16.88
2023-04-29T15:43:09.026Z,18.23
2023-04-29T15:48:10.729Z,18.30
2023-04-29T15:53:13.045Z,17.63
2023-04-29T15:58:15.009Z,18.25
2023-04-29T16:03:16.893Z,20.38
2023-04-29T16:08:18.796Z,19.95
2023-04-29T16:13:21.870Z,18.30
2023-04-29T16:18:23.780Z,19.85
2023-04-29T16:23:25.546Z,18.73
2023-04-29T16:28:28.226Z,18.75
2023-04-29T16:33:30.456Z,18.75
2023-04-29T16:38:32.201Z,18.50
2023-04-29T16:43:34.453Z,36.47
2023-04-29T16:48:36.313Z,16.48
2023-04-29T16:53:38.322Z,16.83
2023-04-29T16:58:40.093Z,17.02
2023-04-29T17:03:48.097Z,17.67
2023-04-29T17:08:51.559Z,16.08
2023-04-29T17:13:53.568Z,15.32
2023-04-29T17:18:55.271Z,16.58
2023-04-29T17:23:57.052Z,18.63
2023-04-29T17:28:59.123Z,19.15
2023-04-29T17:34:18.291Z,15.65
2023-04-29T17:39:20.366Z,13.88
2023-04-29T17:44:23.661Z,15.63
2023-04-29T17:49:26.526Z,15.93
2023-04-29T17:54:29.285Z,14.60
2023-04-29T17:59:31.090Z,15.18
2023-04-29T18:04:32.798Z,13.32
2023-04-29T18:09:34.869Z,13.57
2023-04-29T18:14:36.597Z,14.05
2023-04-29T18:19:38.345Z,13.02
2023-04-29T18:24:39.988Z,14.18
2023-04-29T18:29:41.641Z,13.07
2023-04-29T18:34:43.339Z,12.95
2023-04-29T18:39:45.102Z,13.82
2023-04-29T18:44:48.281Z,13.73
2023-04-29T18:49:49.958Z,13.18
2023-04-29T18:54:51.941Z,13.20
2023-04-29T18:59:54.346Z,13.60
2023-04-29T19:04:56.221Z,13.32
2023-04-29T19:09:57.931Z,13.48
2023-04-29T19:15:00.413Z,13.63
2023-04-29T19:20:02.088Z,12.60
2023-04-29T19:25:05.162Z,13.15
2023-04-29T19:30:07.692Z,13.65
2023-04-29T19:35:09.680Z,12.52
2023-04-29T19:40:11.753Z,12.85
2023-04-29T19:45:13.670Z,12.77
2023-04-29T19:50:15.689Z,12.15
2023-04-29T19:55:17.497Z,14.57
2023-04-29T20:00:19.442Z,16.30
2023-04-29T20:05:21.310Z,15.10
2023-04-29T20:10:23.097Z,15.70
2023-04-29T20:15:24.892Z,15.45
2023-04-29T20:20:26.888Z,15.35
2023-04-29T20:25:28.659Z,14.13
2023-04-29T20:30:30.565Z,14.38
2023-04-29T20:35:32.824Z,13.77
2023-04-29T20:40:34.985Z,14.35
2023-04-29T20:45:38.871Z,15.48
2023-04-29T20:50:40.491Z,13.82
2023-04-29T20:55:42.130Z,14.52
2023-04-29T21:00:43.816Z,14.70
2023-04-29T21:05:45.516Z,14.18
2023-04-29T21:10:47.386Z,14.02
2023-04-29T21:15:49.122Z,14.73
2023-04-29T21:20:51.261Z,14.55
2023-04-29T21:25:52.941Z,13.95
2023-04-29T21:30:54.697Z,13.55
2023-04-29T21:35:56.471Z,14.35
2023-04-29T21:40:59.416Z,16.48
2023-04-29T21:46:01.353Z,14.02
2023-04-29T21:51:05.185Z,13.77
2023-04-29T21:56:07.178Z,14.13
2023-04-29T22:01:39.726Z,15.07
2023-04-29T22:06:41.787Z,15.00
2023-04-29T22:11:43.959Z,15.07
2023-04-29T22:16:45.656Z,14.70
2023-04-29T22:21:47.604Z,14.88
2023-04-29T22:26:49.386Z,14.98
2023-04-29T22:31:51.099Z,14.65
2023-04-29T22:36:52.808Z,16.77
2023-04-29T22:41:54.465Z,14.77
2023-04-29T22:46:56.284Z,15.07
2023-04-29T22:51:57.988Z,15.73
2023-04-29T22:56:59.681Z,15.63
2023-04-29T23:02:01.529Z,16.23
2023-04-29T23:07:03.284Z,15.23
2023-04-29T23:12:05.290Z,15.90
2023-04-29T23:17:07.244Z,15.88
2023-04-29T23:22:08.971Z,15.23
2023-04-29T23:27:11.380Z,15.10
2023-04-29T23:32:13.004Z,19.90
2023-04-29T23:37:14.728Z,16.70
2023-04-29T23:42:16.463Z,14.18
2023-04-29T23:47:18.107Z,15.60
2023-04-29T23:52:19.926Z,15.02
2023-04-29T23:57:21.564Z,15.25
